San Francisco, California
Traffic Map
Current Weather Conditions
San Francisco, California
Overcast
Overcast
54°
Feels Like: 54°
Wind Chill: 54° Ceiling: 800
Heat Index: 54° Visibility: 10mi
Dew Point: 45° Wind: 5mph
Humidity: 72% Direction: 240° (WSW)
Pressure: 29.98in Gusts: 0mph
Raw Report DataKSFO 301156Z 24004KT 10SM BKN008 OVC010 12/07 A2998 RMK AO2 SLP153 T01220072 10128 20117 56003 $
Traffic Incident Summary
Active as of:
Severity:
Category:
InformationThere was an issue retrieving the traffic information for this location. Please try a different location or try again shortly.
Advertisements
Track Severe Weather on mobile